Time;durP1;ratioP1;P1;durP2;ratioP2;P2;SDS_P1;SDS_P2;PMS_P1;PMS_P2;Temp;Humidity;BMP_temperature;BMP_pressure;BME280_temperature;BME280_humidity;BME280_pressure;Samples;Min_cycle;Max_cycle;Signal;HPM_P1;HPM_P2
2023/01/08 00:00:30;;;;;;;1.27;1.08;;;11.60;99.90;;;11.76;100.00;100049.78;5105363;29;20054;-82
2023/01/08 00:03:06;;;;;;;2.20;1.52;;;11.70;99.90;;;11.76;100.00;100055.00;5122058;29;20051;-91
2023/01/08 00:05:42;;;;;;;1.40;0.80;;;11.70;99.90;;;11.79;100.00;100047.22;5121628;29;20058;-83
2023/01/08 00:08:20;;;;;;;1.20;0.90;;;11.70;99.90;;;11.75;100.00;100042.81;5106501;29;20055;-83
2023/01/08 00:10:55;;;;;;;1.10;0.93;;;11.70;99.90;;;11.77;100.00;100050.66;5121255;28;20106;-84
2023/01/08 00:13:28;;;;;;;1.25;0.95;;;11.70;99.90;;;11.76;100.00;100049.78;5122891;29;20054;-84
2023/01/08 00:16:04;;;;;;;1.52;0.93;;;11.70;99.90;;;11.82;100.00;100051.66;5123213;29;20055;-85
2023/01/08 00:18:38;;;;;;;2.42;1.00;;;11.70;99.90;;;11.85;100.00;100044.75;5124408;28;20067;-85
2023/01/08 00:21:11;;;;;;;1.38;1.17;;;11.70;99.90;;;11.79;100.00;100028.06;5124642;29;20047;-81
2023/01/08 00:23:44;;;;;;;1.85;1.00;;;11.70;99.90;;;11.77;100.00;100040.22;5126371;29;20125;-86
2023/01/08 00:26:16;;;;;;;1.10;1.00;;;11.70;99.90;;;11.76;100.00;100036.72;5125734;29;20071;-83
2023/01/08 00:28:50;;;;;;;1.20;1.10;;;11.70;99.90;;;11.72;100.00;100040.13;5125027;29;20051;-83
2023/01/08 00:31:23;;;;;;;2.10;1.05;;;11.70;99.90;;;11.70;100.00;100031.41;5093608;29;20047;-85
2023/01/08 00:33:57;;;;;;;1.27;1.00;;;11.70;99.90;;;11.65;100.00;100018.25;5125555;29;20054;-85
2023/01/08 00:36:31;;;;;;;1.38;1.00;;;11.70;99.90;;;11.63;100.00;100019.09;5109718;29;20062;-84
2023/01/08 00:39:05;;;;;;;;;;;11.60;99.90;;;11.63;100.00;100012.13;5109406;28;20467;-83
2023/01/08 00:41:38;;;;;;;0.88;0.82;;;11.60;99.90;;;11.62;100.00;100010.38;5124839;28;19933;-84
2023/01/08 00:44:13;;;;;;;2.85;1.10;;;11.60;99.90;;;11.62;100.00;100002.56;5111810;28;20106;-84
2023/01/08 00:46:46;;;;;;;1.58;1.10;;;11.60;99.90;;;11.62;100.00;100015.59;5105940;29;20063;-83
2023/01/08 00:49:20;;;;;;;1.00;0.80;;;11.60;99.90;;;11.61;100.00;100012.97;5101507;28;20051;-84
2023/01/08 00:51:53;;;;;;;1.17;1.08;;;11.60;99.90;;;11.63;100.00;100001.69;5093774;29;20515;-83
2023/01/08 00:54:25;;;;;;;1.80;1.20;;;11.60;99.90;;;11.67;100.00;99998.31;5105162;29;20079;-84
2023/01/08 00:56:58;;;;;;;2.20;1.70;;;11.60;99.90;;;11.65;100.00;99989.53;5116295;29;20117;-85
2023/01/08 00:59:30;;;;;;;1.73;1.02;;;11.60;99.90;;;11.66;100.00;99990.41;5120445;28;20061;-83
2023/01/08 01:02:03;;;;;;;1.58;1.13;;;11.60;99.90;;;11.64;100.00;99993.00;5113499;29;20047;-83
2023/01/08 01:04:40;;;;;;;1.20;0.93;;;11.60;99.90;;;11.64;100.00;99995.63;5088442;29;20043;-84
2023/01/08 01:07:14;;;;;;;1.88;1.13;;;11.60;99.90;;;11.64;100.00;99987.78;5111572;29;20051;-84
2023/01/08 01:09:47;;;;;;;2.50;1.63;;;11.60;99.90;;;11.64;100.00;99981.69;5109141;28;20051;-84
2023/01/08 01:12:19;;;;;;;1.42;1.20;;;11.60;99.90;;;11.65;100.00;99994.75;5125704;29;20329;-84
2023/01/08 01:14:53;;;;;;;1.95;1.30;;;11.60;99.90;;;11.65;100.00;99993.88;5124747;28;20059;-85
2023/01/08 01:17:26;;;;;;;2.13;1.00;;;11.60;99.90;;;11.63;100.00;99999.09;5121426;29;20247;-84
2023/01/08 01:20:00;;;;;;;2.33;1.30;;;11.60;99.90;;;11.64;100.00;99990.41;5124403;28;20051;-83
2023/01/08 01:22:32;;;;;;;1.98;1.00;;;11.60;99.90;;;11.63;100.00;99990.38;5124833;29;20050;-84
2023/01/08 01:25:06;;;;;;;1.38;1.15;;;11.60;99.90;;;11.65;100.00;99994.75;5120100;29;20047;-83
2023/01/08 01:27:38;;;;;;;2.50;1.55;;;11.60;99.90;;;11.64;100.00;99998.22;5105443;29;20328;-84
2023/01/08 01:30:12;;;;;;;1.95;1.50;;;11.60;99.90;;;11.64;100.00;99989.53;5109639;28;20082;-82
2023/01/08 01:32:44;;;;;;;1.63;1.10;;;11.60;99.90;;;11.63;100.00;99996.47;5104280;29;20052;-84
2023/01/08 01:35:20;;;;;;;3.13;1.45;;;11.60;99.90;;;11.64;100.00;99993.00;5091390;29;20060;-84
2023/01/08 01:37:53;;;;;;;3.35;1.38;;;11.60;99.90;;;11.67;100.00;99994.78;5117930;29;20059;-83
2023/01/08 01:40:25;;;;;;;2.80;1.33;;;11.60;99.90;;;11.65;100.00;99986.94;5108198;29;20054;-83
2023/01/08 01:42:58;;;;;;;1.90;1.20;;;11.60;99.90;;;11.62;100.00;99989.50;5108464;28;20130;-84
2023/01/08 01:45:30;;;;;;;1.90;1.13;;;11.60;99.90;;;11.62;100.00;99989.50;5107824;29;20058;-84
2023/01/08 01:48:07;;;;;;;2.33;1.40;;;11.60;99.90;;;11.63;100.00;99986.03;5124331;29;20047;-84
2023/01/08 01:50:45;;;;;;;2.97;1.40;;;11.60;99.90;;;11.61;100.00;99979.03;5105524;28;20415;-84
2023/01/08 01:53:23;;;;;;;1.90;1.27;;;11.60;99.90;;;11.60;100.00;99985.97;5119428;29;20036;-84
2023/01/08 01:55:58;;;;;;;1.90;1.58;;;11.60;99.90;;;11.62;100.00;99984.28;5123471;28;20055;-83
2023/01/08 01:58:32;;;;;;;2.05;1.42;;;11.60;99.90;;;11.63;100.00;99986.03;5124961;29;20047;-83
2023/01/08 02:01:08;;;;;;;2.72;1.42;;;11.60;99.90;;;11.64;100.00;99982.56;5123014;28;20054;-83
2023/01/08 02:03:40;;;;;;;1.35;1.25;;;11.60;99.90;;;11.63;100.00;99975.59;5124691;29;20049;-84
2023/01/08 02:06:36;;;;;;;1.73;1.27;;;11.60;99.90;;;11.64;100.00;99974.75;5125042;28;20047;-83
2023/01/08 02:09:17;;;;;;;2.60;1.52;;;11.60;99.90;;;11.62;100.00;99966.00;5108509;29;20115;-84
2023/01/08 02:15:00;;;;;;;2.40;1.40;;;11.60;99.90;;;11.58;100.00;99956.34;5100149;29;20055;-84
2023/01/08 02:17:43;;;;;;;1.75;1.42;;;11.60;99.90;;;11.56;100.00;99947.63;5113038;28;20046;-83
2023/01/08 02:20:22;;;;;;;3.75;1.40;;;11.60;99.90;;;11.55;100.00;99951.09;5126597;28;20051;-84
2023/01/08 02:23:21;;;;;;;2.40;1.40;;;11.60;99.90;;;11.54;100.00;99946.72;5111108;29;20094;-84
2023/01/08 02:26:13;;;;;;;2.20;1.42;;;11.50;99.90;;;11.52;100.00;99940.59;5125520;29;20057;-84
2023/01/08 02:28:55;;;;;;;2.35;1.25;;;11.50;99.90;;;11.53;100.00;99936.25;5122727;28;20061;-83
2023/01/08 02:31:31;;;;;;;3.17;1.30;;;11.50;99.90;;;11.50;100.00;99924.03;5123147;28;20047;-83
2023/01/08 02:34:05;;;;;;;2.92;1.40;;;11.50;99.90;;;11.49;100.00;99922.28;5123942;29;20047;-83
2023/01/08 02:36:41;;;;;;;1.23;1.10;;;11.50;99.90;;;11.45;100.00;99917.84;5124162;29;20156;-85
2023/01/08 02:39:45;;;;;;;2.85;1.42;;;11.50;99.90;;;11.42;100.00;99904.75;5122395;28;20055;-83
2023/01/08 02:42:27;;;;;;;1.52;1.10;;;11.50;99.90;;;11.41;100.00;99896.06;5108693;29;20130;-84
2023/01/08 02:45:12;;;;;;;2.17;1.23;;;11.40;99.90;;;11.41;100.00;99890.84;5123253;29;20055;-83
2023/01/08 02:47:51;;;;;;;2.28;1.20;;;11.40;99.90;;;11.41;100.00;99880.41;5122659;29;20055;-85
2023/01/08 02:50:29;;;;;;;2.83;1.70;;;11.40;99.90;;;11.40;100.00;99875.13;5122325;28;20389;-85
2023/01/08 02:53:09;;;;;;;2.35;1.63;;;11.40;99.90;;;11.36;100.00;99878.56;5123116;29;20174;-84
2023/01/08 02:55:48;;;;;;;2.00;1.23;;;11.40;99.90;;;11.29;100.00;99871.50;5106987;29;20430;-85
2023/01/08 02:58:24;;;;;;;1.70;1.30;;;11.40;99.90;;;11.24;100.00;99876.63;5107433;29;20471;-85
2023/01/08 03:01:06;;;;;;;2.85;1.30;;;11.30;99.90;;;11.23;100.00;99874.88;5107110;29;20102;-85
2023/01/08 03:03:45;;;;;;;1.88;1.35;;;11.30;99.90;;;11.23;100.00;99868.78;5123285;29;20035;-85
2023/01/08 03:06:20;;;;;;;2.25;1.30;;;11.30;99.90;;;11.25;100.00;99867.94;5108275;29;20046;-85
2023/01/08 03:09:00;;;;;;;3.40;1.48;;;11.30;99.90;;;11.24;100.00;99860.09;5124506;28;20047;-85
2023/01/08 03:11:36;;;;;;;3.30;1.40;;;11.20;99.90;;;11.23;100.00;99864.44;5153264;23;20054;-71
2023/01/08 03:14:16;;;;;;;3.75;1.40;;;11.30;99.90;;;11.21;100.00;99865.22;5164063;28;20165;-72
2023/01/08 03:16:52;;;;;;;2.72;1.50;;;11.20;99.90;;;11.19;100.00;99861.72;5155564;28;20434;-73
2023/01/08 03:19:31;;;;;;;2.03;1.48;;;11.20;99.90;;;11.19;100.00;99862.59;5143864;28;20058;-72
2023/01/08 03:22:09;;;;;;;3.03;1.48;;;11.20;99.90;;;11.16;100.00;99862.56;5144087;28;20053;-73
2023/01/08 03:24:43;;;;;;;2.85;1.83;;;11.20;99.90;;;11.11;100.00;99870.31;5142254;28;20042;-72
2023/01/08 03:27:19;;;;;;;3.17;1.40;;;11.20;99.90;;;11.09;100.00;99872.00;5143582;28;20589;-72
2023/01/08 03:29:56;;;;;;;3.33;1.60;;;11.20;99.90;;;11.09;100.00;99871.13;5143615;28;20419;-72
2023/01/08 03:32:30;;;;;;;2.80;1.23;;;11.10;99.90;;;11.08;100.00;99870.25;5144404;28;20039;-72
2023/01/08 03:35:05;;;;;;;2.42;1.40;;;11.10;99.90;;;11.08;100.00;99866.75;5143481;28;20051;-73
2023/01/08 03:37:42;;;;;;;1.67;1.23;;;11.10;99.90;;;11.07;100.00;99865.88;5143277;28;20050;-71
2023/01/08 03:40:23;;;;;;;4.57;1.77;;;11.10;99.90;;;11.03;100.00;99871.91;5142216;28;20097;-74
2023/01/08 03:42:56;;;;;;;2.38;1.45;;;11.10;99.90;;;10.97;100.00;99874.41;5143941;28;20093;-73
2023/01/08 03:45:31;;;;;;;2.58;1.48;;;11.00;99.90;;;10.93;100.00;99877.78;5143512;28;20051;-74
2023/01/08 03:48:05;;;;;;;1.63;1.50;;;11.00;99.90;;;10.89;100.00;99873.38;5143619;28;20047;-72
2023/01/08 03:50:41;;;;;;;1.98;1.52;;;10.90;99.90;;;10.86;100.00;99873.31;5143449;28;20518;-71
2023/01/08 03:53:13;;;;;;;2.08;1.50;;;10.90;99.90;;;10.85;100.00;99868.94;5146912;28;20047;-74
2023/01/08 03:55:45;;;;;;;2.55;1.45;;;10.90;99.90;;;10.81;100.00;99864.50;5147458;28;20043;-74
2023/01/08 03:58:18;;;;;;;1.85;1.42;;;10.90;99.90;;;10.79;100.00;99867.09;5146274;28;20047;-72
2023/01/08 04:00:54;;;;;;;3.63;1.63;;;10.90;99.90;;;10.79;100.00;99858.41;5147982;28;20089;-73
2023/01/08 04:03:26;;;;;;;2.22;1.45;;;10.80;99.90;;;10.79;100.00;99855.78;5147527;28;20127;-72
2023/01/08 04:06:00;;;;;;;2.38;1.52;;;10.80;99.90;;;10.80;100.00;99862.75;5147129;28;20393;-73
2023/01/08 04:08:33;;;;;;;2.83;1.50;;;10.80;99.90;;;10.82;100.00;99861.06;5147218;28;20053;-73
2023/01/08 04:11:07;;;;;;;3.13;1.60;;;10.90;99.90;;;10.85;100.00;99855.91;5145634;28;20050;-72
2023/01/08 04:13:40;;;;;;;2.20;1.33;;;10.80;99.90;;;10.89;100.00;99852.53;5146354;28;20506;-72
2023/01/08 04:16:13;;;;;;;1.20;1.02;;;10.90;99.90;;;10.92;100.00;99842.13;5145507;28;20051;-72
2023/01/08 04:18:45;;;;;;;2.13;1.15;;;10.90;99.90;;;10.94;100.00;99843.03;5147182;28;20500;-73
2023/01/08 04:21:18;;;;;;;2.35;1.40;;;10.90;99.90;;;10.98;100.00;99836.16;5147331;28;20057;-72
2023/01/08 04:23:51;;;;;;;1.10;0.85;;;10.90;99.90;;;11.00;100.00;99837.06;5147274;28;20041;-74
2023/01/08 04:26:23;;;;;;;1.00;1.00;;;10.90;99.90;;;11.01;100.00;99834.47;5145995;28;20054;-73
2023/01/08 04:28:55;;;;;;;1.88;1.10;;;11.00;99.90;;;11.04;100.00;99837.16;5146687;28;20058;-72
2023/01/08 04:31:29;;;;;;;1.38;0.88;;;11.00;99.90;;;11.04;100.00;99834.53;5146795;28;20420;-72
2023/01/08 04:34:03;;;;;;;2.22;1.02;;;11.00;99.90;;;11.05;100.00;99831.06;5146999;28;20043;-73
2023/01/08 04:36:35;;;;;;;1.95;1.27;;;11.00;99.90;;;11.06;100.00;99827.59;5146839;28;20046;-73
2023/01/08 04:39:10;;;;;;;2.33;1.35;;;11.00;99.90;;;11.06;100.00;99830.22;5146812;28;20039;-73
2023/01/08 04:41:42;;;;;;;1.63;1.05;;;11.00;99.90;;;11.06;100.00;99830.22;5146574;28;20062;-73
2023/01/08 04:44:14;;;;;;;2.08;1.25;;;11.00;99.90;;;11.05;100.00;99828.47;5146556;28;20130;-72
2023/01/08 04:46:48;;;;;;;2.25;1.50;;;11.00;99.90;;;11.07;100.00;99831.09;5146764;28;20054;-71
2023/01/08 04:49:20;;;;;;;2.63;0.90;;;11.00;99.90;;;11.06;100.00;99829.34;5146639;28;20057;-73
2023/01/08 04:51:55;;;;;;;1.10;0.80;;;11.10;99.90;;;11.06;100.00;99837.16;5146724;28;20524;-72
2023/01/08 04:54:27;;;;;;;;;;;11.00;99.90;;;11.05;100.00;99833.69;5145589;28;20043;-71
2023/01/08 04:57:00;;;;;;;1.13;0.80;;;11.00;99.90;;;11.06;100.00;99832.81;5146565;28;20011;-72
2023/01/08 04:59:32;;;;;;;0.90;0.60;;;11.00;99.90;;;11.09;100.00;99830.28;5146281;28;20055;-73
2023/01/08 05:02:06;;;;;;;1.00;0.60;;;11.10;99.90;;;11.09;100.00;99827.69;5146718;28;20520;-72
2023/01/08 05:04:38;;;;;;;0.60;0.55;;;11.00;99.90;;;11.08;100.00;99825.94;5145702;28;20119;-72
2023/01/08 05:07:10;;;;;;;0.95;0.80;;;11.00;99.90;;;11.09;100.00;99830.28;5146124;28;20050;-72
2023/01/08 05:09:42;;;;;;;0.40;0.40;;;11.00;99.90;;;11.08;100.00;99823.31;5146225;28;20049;-72
2023/01/08 05:12:16;;;;;;;1.35;0.70;;;11.00;99.90;;;11.08;100.00;99823.31;5146296;28;20055;-72
2023/01/08 05:14:48;;;;;;;1.33;0.63;;;11.00;99.90;;;11.07;100.00;99818.94;5146341;28;20117;-73
2023/01/08 05:17:22;;;;;;;0.77;0.60;;;11.00;99.90;;;11.08;100.00;99822.41;5146016;28;20527;-73
2023/01/08 05:19:54;;;;;;;0.43;0.43;;;11.00;99.90;;;11.07;100.00;99811.09;5144931;28;20093;-72
2023/01/08 05:22:26;;;;;;;0.65;0.50;;;11.00;99.90;;;11.07;100.00;99800.66;5144706;28;20087;-70
2023/01/08 05:24:59;;;;;;;1.02;0.43;;;11.00;99.90;;;11.07;100.00;99789.38;5145761;28;20533;-71
2023/01/08 05:27:31;;;;;;;0.88;0.52;;;11.00;99.90;;;11.07;100.00;99790.25;5144513;28;20057;-71
2023/01/08 05:30:04;;;;;;;0.82;0.70;;;11.00;99.90;;;11.07;100.00;99774.59;5145851;28;20043;-71
2023/01/08 05:32:38;;;;;;;0.52;0.52;;;11.00;99.90;;;11.06;100.00;99785.88;5146236;28;20125;-73
2023/01/08 05:35:10;;;;;;;0.55;0.55;;;11.00;99.90;;;11.04;100.00;99794.53;5145904;28;20562;-71
2023/01/08 05:37:42;;;;;;;0.57;0.45;;;11.00;99.90;;;11.02;100.00;99791.91;5146121;28;20277;-73
2023/01/08 05:40:15;;;;;;;0.85;0.52;;;11.00;99.90;;;11.03;100.00;99791.06;5144309;28;20424;-69
2023/01/08 05:42:47;;;;;;;0.50;0.50;;;11.00;99.90;;;11.02;100.00;99804.97;5145363;28;20050;-71
2023/01/08 05:45:19;;;;;;;0.52;0.52;;;11.00;99.90;;;11.02;100.00;99801.44;5144323;28;20053;-70
2023/01/08 05:47:54;;;;;;;0.65;0.50;;;11.00;99.90;;;11.02;100.00;99809.25;5144166;28;20043;-72
2023/01/08 05:50:26;;;;;;;0.60;0.60;;;11.00;99.90;;;11.01;100.00;99808.38;5144021;28;20049;-71
2023/01/08 05:52:59;;;;;;;1.38;0.50;;;11.00;99.90;;;10.99;100.00;99812.72;5144189;28;20046;-71
2023/01/08 05:55:31;;;;;;;0.70;0.55;;;11.00;99.90;;;11.00;100.00;99818.81;5144231;28;20094;-73
2023/01/08 05:58:04;;;;;;;0.40;0.38;;;11.00;99.90;;;10.99;100.00;99809.22;5145395;28;20147;-73
2023/01/08 06:00:38;;;;;;;0.85;0.70;;;11.00;99.90;;;11.00;100.00;99814.47;5145312;28;20038;-72
2023/01/08 06:03:11;;;;;;;0.45;0.35;;;11.00;99.90;;;10.99;100.00;99812.72;5145111;28;20070;-71
2023/01/08 06:05:43;;;;;;;0.68;0.68;;;11.00;99.90;;;10.99;100.00;99807.50;5143850;28;20055;-72
2023/01/08 06:08:16;;;;;;;0.73;0.45;;;11.00;99.90;;;10.99;100.00;99810.09;5145296;28;20050;-72
2023/01/08 06:10:51;;;;;;;0.57;0.50;;;11.00;99.90;;;11.00;100.00;99803.16;5145424;28;20054;-76
2023/01/08 06:13:23;;;;;;;0.50;0.50;;;11.00;99.90;;;10.99;100.00;99804.88;5144686;28;20464;-71
2023/01/08 06:15:58;;;;;;;0.38;0.32;;;11.00;99.90;;;11.00;100.00;99800.53;5143886;28;20050;-72
2023/01/08 06:18:32;;;;;;;0.22;0.22;;;11.00;99.90;;;10.99;100.00;99817.03;5145647;28;20074;-71
2023/01/08 06:21:05;;;;;;;0.70;0.70;;;11.00;99.90;;;11.00;100.00;99819.69;5144840;28;20042;-73
2023/01/08 06:23:37;;;;;;;1.10;0.68;;;11.00;99.90;;;11.02;100.00;99820.59;5144597;28;20053;-72
2023/01/08 06:26:09;;;;;;;0.70;0.57;;;11.00;99.90;;;11.02;100.00;99818.00;5144991;28;20055;-72
2023/01/08 06:28:41;;;;;;;0.65;0.43;;;11.00;99.90;;;11.02;100.00;99818.00;5143200;28;20061;-72
2023/01/08 06:31:14;;;;;;;1.67;0.90;;;11.00;99.90;;;11.02;100.00;99815.38;5144528;28;20042;-71
2023/01/08 06:33:49;;;;;;;0.45;0.45;;;11.00;99.90;;;11.02;100.00;99802.34;5144515;28;20047;-72
2023/01/08 06:36:21;;;;;;;0.47;0.40;;;11.00;99.90;;;11.01;100.00;99800.56;5144812;28;20038;-73
2023/01/08 06:38:55;;;;;;;0.47;0.47;;;11.00;99.90;;;11.01;100.00;99808.38;5143231;28;20051;-73
2023/01/08 06:41:27;;;;;;;1.42;0.60;;;11.00;99.90;;;11.01;100.00;99805.78;5144600;28;20074;-71
2023/01/08 06:44:03;;;;;;;0.80;0.75;;;11.00;99.90;;;11.02;100.00;99793.63;5144210;28;20507;-72
2023/01/08 06:46:38;;;;;;;1.52;0.80;;;11.00;99.90;;;11.00;100.00;99798.81;5144231;28;20046;-71
2023/01/08 06:49:13;;;;;;;1.10;0.70;;;11.00;99.90;;;11.00;100.00;99792.72;5144650;28;20582;-71
2023/01/08 06:51:46;;;;;;;1.08;0.73;;;11.00;99.90;;;10.98;100.00;99800.53;5144459;28;20467;-73
2023/01/08 06:54:18;;;;;;;1.30;0.88;;;11.00;99.90;;;10.98;100.00;99802.25;5144255;28;20043;-71
2023/01/08 06:56:51;;;;;;;0.82;0.80;;;11.00;99.90;;;10.95;100.00;99800.47;5142792;28;20055;-72
2023/01/08 06:59:24;;;;;;;1.42;0.82;;;11.00;99.90;;;10.94;100.00;99808.25;5144412;28;20046;-72
2023/01/08 07:01:56;;;;;;;0.82;0.70;;;10.90;99.90;;;10.94;100.00;99816.09;5142816;28;20066;-72
2023/01/08 07:04:29;;;;;;;0.63;0.63;;;10.90;99.90;;;10.93;100.00;99823.03;5143738;28;20057;-62
2023/01/08 07:07:01;;;;;;;1.23;0.82;;;10.90;99.90;;;10.92;100.00;99821.28;5143722;28;20123;-61
2023/01/08 07:09:34;;;;;;;1.02;0.80;;;10.90;99.90;;;10.91;100.00;99819.53;5143206;28;20427;-61
2023/01/08 07:12:08;;;;;;;1.20;1.00;;;10.90;99.90;;;10.91;100.00;99814.31;5143413;28;20054;-63
2023/01/08 07:14:41;;;;;;;1.30;1.10;;;10.90;99.90;;;10.90;100.00;99812.56;5142051;28;20050;-63
2023/01/08 07:17:13;;;;;;;1.20;0.80;;;10.90;99.90;;;10.92;100.00;99810.84;5143443;28;20046;-63
2023/01/08 07:19:46;;;;;;;1.20;0.73;;;10.90;99.90;;;10.90;100.00;99817.78;5143000;28;20053;-64
2023/01/08 07:22:19;;;;;;;0.88;0.82;;;10.90;99.90;;;10.89;100.00;99813.41;5143451;28;20058;-63
2023/01/08 07:24:51;;;;;;;1.52;0.80;;;10.90;99.90;;;10.87;100.00;99820.31;5139364;28;20054;-63
2023/01/08 07:27:23;;;;;;;0.88;0.75;;;10.90;99.90;;;10.88;100.00;99829.88;5123172;28;20055;-63
2023/01/08 07:29:55;;;;;;;0.52;0.52;;;10.90;99.90;;;10.87;100.00;99828.13;5122896;29;20051;-62
2023/01/08 07:32:28;;;;;;;0.93;0.73;;;10.90;99.90;;;10.86;100.00;99831.59;5123337;29;20058;-63
2023/01/08 07:35:01;;;;;;;1.10;0.63;;;10.90;99.90;;;10.86;100.00;99831.59;5123305;29;20047;-63
2023/01/08 07:37:33;;;;;;;0.55;0.55;;;10.90;99.90;;;10.87;100.00;99828.13;5123398;28;20055;-62
2023/01/08 07:40:07;;;;;;;0.80;0.80;;;10.90;99.90;;;10.88;100.00;99833.38;5137646;28;20412;-63
2023/01/08 07:42:39;;;;;;;0.63;0.63;;;10.90;99.90;;;10.89;100.00;99831.66;5123417;28;20501;-62
2023/01/08 07:45:15;;;;;;;0.90;0.55;;;10.90;99.90;;;10.92;100.00;99836.91;5123241;29;20389;-61
2023/01/08 07:47:47;;;;;;;1.67;0.55;;;10.90;99.90;;;10.92;100.00;99839.53;5123149;28;20055;-61
2023/01/08 07:50:21;;;;;;;0.52;0.50;;;10.90;99.90;;;10.93;100.00;99854.31;5122884;29;20420;-62
2023/01/08 07:52:57;;;;;;;1.17;0.65;;;10.90;99.90;;;10.93;100.00;99854.31;5123069;28;20084;-64
2023/01/08 07:55:31;;;;;;;1.35;0.90;;;10.90;99.90;;;10.93;100.00;99859.53;5122983;29;20046;-63
2023/01/08 07:58:09;;;;;;;1.17;0.80;;;10.90;99.90;;;10.90;100.00;99859.50;5122656;28;20051;-63
2023/01/08 08:00:41;;;;;;;1.27;0.70;;;10.90;99.90;;;10.89;100.00;99849.91;5122645;29;20468;-63
2023/01/08 08:03:15;;;;;;;1.25;0.82;;;10.90;99.90;;;10.90;100.00;99846.47;5122966;29;20527;-62
2023/01/08 08:05:50;;;;;;;1.17;1.08;;;10.90;99.90;;;10.89;100.00;99852.53;5123043;29;20047;-62
2023/01/08 08:08:27;;;;;;;3.10;1.63;;;10.90;99.90;;;10.86;100.00;99847.22;5122881;28;20073;-61
2023/01/08 08:11:00;;;;;;;4.97;2.80;;;10.80;99.90;;;10.83;100.00;99847.19;5122564;29;20049;-62
2023/01/08 08:13:33;;;;;;;6.72;4.00;;;10.80;99.90;;;10.83;100.00;99852.41;5122729;29;20055;-62
2023/01/08 08:16:06;;;;;;;7.18;3.80;;;10.80;99.90;;;10.88;100.00;99858.56;5122617;29;20079;-62
2023/01/08 08:18:41;;;;;;;6.60;3.50;;;10.90;99.90;;;10.87;100.00;99854.19;5122410;29;20443;-63
2023/01/08 08:21:15;;;;;;;3.90;2.35;;;10.90;99.90;;;10.85;100.00;99840.28;5122136;28;20453;-63
2023/01/08 08:23:47;;;;;;;3.00;1.92;;;10.90;99.90;;;10.83;100.00;99841.97;5122579;28;20421;-63
2023/01/08 08:26:20;;;;;;;6.38;3.38;;;10.80;99.90;;;10.81;100.00;99841.06;5135979;28;20041;-64
2023/01/08 08:28:53;;;;;;;12.68;6.53;;;10.80;99.90;;;10.80;100.00;99839.31;5142492;28;20046;-63
2023/01/08 08:31:25;;;;;;;17.02;8.68;;;10.80;99.90;;;10.79;100.00;99840.16;5142369;28;20050;-62
2023/01/08 08:33:57;;;;;;;15.25;7.57;;;10.70;99.90;;;10.76;100.00;99834.91;5142646;28;20055;-64
2023/01/08 08:36:32;;;;;;;14.82;7.95;;;10.70;99.90;;;10.77;100.00;99834.03;5142317;28;20055;-63
2023/01/08 08:39:04;;;;;;;12.15;7.20;;;10.70;99.90;;;10.74;100.00;99836.56;5143216;28;20051;-65
2023/01/08 08:41:36;;;;;;;12.38;6.72;;;10.70;99.90;;;10.73;100.00;99835.69;5146354;28;20058;-63
2023/01/08 08:44:09;;;;;;;5.57;2.55;;;10.70;99.90;;;10.82;100.00;99834.97;5145792;28;20047;-63
2023/01/08 08:46:41;;;;;;;2.97;1.60;;;10.80;99.90;;;11.13;100.00;99837.28;5146368;28;20443;-62
2023/01/08 08:49:13;;;;;;;2.50;1.40;;;11.20;99.90;;;11.19;100.00;99835.66;5145733;28;20043;-63
2023/01/08 08:51:49;;;;;;;1.67;1.25;;;11.20;99.90;;;11.18;100.00;99831.28;5144848;28;20050;-63
2023/01/08 08:54:21;;;;;;;1.98;1.30;;;11.20;99.90;;;11.13;100.00;99826.84;5145988;28;20050;-63
2023/01/08 08:56:53;;;;;;;1.17;0.85;;;11.20;99.90;;;11.07;100.00;99818.94;5146099;28;20066;-63
2023/01/08 08:59:26;;;;;;;1.40;1.08;;;11.10;99.90;;;11.04;100.00;99820.63;5145642;28;20055;-63
2023/01/08 09:01:58;;;;;;;2.72;0.80;;;11.00;99.90;;;11.00;100.00;99813.59;5146303;28;20050;-64
2023/01/08 09:04:32;;;;;;;1.33;0.90;;;11.00;99.90;;;10.98;100.00;99810.09;5145980;28;20535;-62
2023/01/08 09:07:05;;;;;;;2.22;1.00;;;11.00;99.90;;;10.96;100.00;99802.25;5145802;28;20134;-62
2023/01/08 09:09:37;;;;;;;1.00;0.80;;;11.00;99.90;;;10.94;100.00;99798.72;5145376;28;20046;-64
2023/01/08 09:12:09;;;;;;;1.45;0.75;;;10.90;99.90;;;10.96;100.00;99785.72;5216275;23;20054;-56
2023/01/08 09:14:42;;;;;;;3.28;1.90;;;10.90;99.90;;;10.97;100.00;99793.56;5172709;28;20042;-57
2023/01/08 09:17:14;;;;;;;6.20;2.80;;;10.90;99.90;;;11.00;100.00;99790.13;5167590;28;20058;-57
2023/01/08 09:19:46;;;;;;;2.42;1.70;;;11.00;99.90;;;11.04;100.00;99790.19;5156001;28;20414;-59
2023/01/08 09:22:19;;;;;;;3.85;2.08;;;11.00;99.90;;;11.11;100.00;99781.63;5161615;28;20057;-57
2023/01/08 09:24:53;;;;;;;3.92;1.80;;;11.00;99.90;;;11.20;100.00;99780.00;5164126;28;20388;-58
2023/01/08 09:27:26;;;;;;;4.18;2.00;;;11.10;99.90;;;11.26;100.00;99782.72;5157006;28;20046;-58
2023/01/08 09:29:58;;;;;;;3.15;1.75;;;11.20;99.90;;;11.36;100.00;99790.72;5165776;28;20046;-57
2023/01/08 09:32:30;;;;;;;2.97;1.63;;;11.30;99.90;;;11.47;100.00;99787.38;5164378;28;20062;-56
2023/01/08 09:35:02;;;;;;;2.28;1.42;;;11.40;99.90;;;11.57;100.00;99792.78;5163036;28;20045;-57
2023/01/08 09:37:36;;;;;;;3.38;1.30;;;11.40;99.90;;;11.65;100.00;99791.16;5165262;28;20073;-60
2023/01/08 09:40:14;;;;;;;4.63;1.33;;;11.50;99.90;;;12.25;100.00;99789.34;5165759;28;20053;-61
2023/01/08 09:42:53;;;;;;;4.03;1.33;;;12.20;99.90;;;12.85;100.00;99782.19;5164849;28;20046;-58
2023/01/08 09:45:30;;;;;;;2.88;1.33;;;12.80;99.90;;;13.00;100.00;99780.56;5158834;28;20404;-58
2023/01/08 09:48:06;;;;;;;2.30;1.13;;;13.00;99.90;;;12.94;100.00;99787.50;5164508;28;20403;-57
2023/01/08 09:50:39;;;;;;;1.90;1.05;;;13.00;99.90;;;12.77;100.00;99790.81;5162541;28;20054;-59
2023/01/08 09:53:16;;;;;;;2.60;1.20;;;12.80;99.90;;;12.63;100.00;99799.38;5165415;28;20038;-58
2023/01/08 09:55:55;;;;;;;1.65;1.00;;;12.70;99.90;;;12.55;100.00;99796.69;5164784;28;20043;-58
2023/01/08 09:58:37;;;;;;;2.22;1.10;;;12.50;99.90;;;12.46;100.00;99799.22;5165526;28;20038;-58
2023/01/08 10:01:14;;;;;;;1.73;0.93;;;12.40;99.90;;;12.39;100.00;99793.03;5165251;28;20541;-57
2023/01/08 10:03:49;;;;;;;1.75;0.98;;;12.30;99.90;;;12.37;100.00;99793.84;5165621;28;20576;-57
2023/01/08 10:06:24;;;;;;;3.65;1.10;;;12.30;99.90;;;12.45;100.00;99797.44;5165302;28;20038;-56
2023/01/08 10:08:58;;;;;;;2.25;1.30;;;12.30;99.90;;;12.45;100.00;99797.44;5165493;28;20050;-58
2023/01/08 10:11:40;;;;;;;1.92;0.90;;;12.30;99.90;;;12.47;100.00;99793.13;5165409;28;20047;-57
2023/01/08 10:14:23;;;;;;;0.93;0.82;;;12.30;99.90;;;12.36;100.00;99782.53;5165464;28;20038;-58
2023/01/08 10:17:01;;;;;;;1.23;0.70;;;12.20;99.90;;;12.25;100.00;99778.03;5165182;28;20458;-58
2023/01/08 10:19:33;;;;;;;2.03;0.85;;;12.10;99.90;;;12.18;100.00;99764.03;5164921;28;20512;-58
2023/01/08 10:22:13;;;;;;;1.25;0.80;;;12.10;99.90;;;12.15;100.00;99762.25;5165033;28;20495;-58
2023/01/08 10:24:47;;;;;;;2.88;0.82;;;12.10;99.90;;;12.17;100.00;99750.09;5165075;28;20101;-58
2023/01/08 10:27:21;;;;;;;3.58;1.25;;;12.00;99.90;;;12.19;100.00;99744.88;5164884;28;20053;-57
2023/01/08 10:30:05;;;;;;;2.20;0.90;;;12.10;99.90;;;12.15;100.00;99746.59;5164658;28;20050;-57
2023/01/08 10:32:37;;;;;;;2.65;0.90;;;12.10;99.90;;;12.15;100.00;99741.38;5147527;28;20427;-58
2023/01/08 10:35:17;;;;;;;1.23;0.75;;;12.00;99.90;;;12.11;100.00;99734.34;5164879;28;20052;-59
2023/01/08 10:37:50;;;;;;;1.58;1.17;;;12.00;99.90;;;12.22;100.00;99732.72;5164750;28;20399;-57
2023/01/08 10:40:29;;;;;;;1.90;0.82;;;12.10;99.90;;;12.39;100.00;99724.22;5164316;28;20061;-60
2023/01/08 10:43:08;;;;;;;1.20;0.75;;;12.20;99.90;;;12.56;100.00;99729.59;5164666;28;20547;-58
2023/01/08 10:45:40;;;;;;;2.15;0.95;;;12.30;99.90;;;12.65;100.00;99727.97;5164820;28;20039;-57